Time;durP1;ratioP1;P1;durP2;ratioP2;P2;SDS_P1;SDS_P2;PMS_P1;PMS_P2;Temp;Humidity;BMP_temperature;BMP_pressure;BME280_temperature;BME280_humidity;BME280_pressure;Samples;Min_cycle;Max_cycle;Signal;HPM_P1;HPM_P2
2023/02/06 00:00:38;;;;;;;2.55;1.75;;;;;;;;;;4960457;28;20435;-57
2023/02/06 00:03:03;;;;;;;2.55;1.90;;;;;;;;;;4963475;28;20108;-58
2023/02/06 00:05:29;;;;;;;2.65;2.03;;;;;;;;;;4949699;28;20030;-56
2023/02/06 00:07:54;;;;;;;2.50;1.50;;;;;;;;;;4975813;28;20088;-58
2023/02/06 00:10:19;;;;;;;2.20;1.58;;;;;;;;;;4978816;28;20038;-56
2023/02/06 00:12:44;;;;;;;3.30;2.00;;;;;;;;;;4968331;28;20023;-61
2023/02/06 00:15:10;;;;;;;2.27;1.63;;;;;;;;;;4983009;28;20352;-58
2023/02/06 00:17:35;;;;;;;2.95;1.83;;;;;;;;;;4987508;28;20338;-55
2023/02/06 00:20:01;;;;;;;2.67;1.92;;;;;;;;;;4971389;28;20479;-62
2023/02/06 00:22:26;;;;;;;2.75;1.73;;;;;;;;;;4954635;28;20066;-56
2023/02/06 00:24:51;;;;;;;3.03;1.90;;;;;;;;;;4985538;28;20026;-59
2023/02/06 00:27:16;;;;;;;4.63;1.97;;;;;;;;;;5001746;28;20478;-60
2023/02/06 00:29:42;;;;;;;2.35;1.60;;;;;;;;;;4984732;28;20238;-60
2023/02/06 00:32:07;;;;;;;2.78;1.90;;;;;;;;;;4969263;28;20719;-60
2023/02/06 00:34:32;;;;;;;2.40;1.60;;;;;;;;;;4984731;28;20030;-60
2023/02/06 00:36:57;;;;;;;3.03;1.95;;;;;;;;;;4987317;28;20022;-63
2023/02/06 00:39:23;;;;;;;2.47;2.00;;;;;;;;;;4970888;28;20030;-62
2023/02/06 00:41:49;;;;;;;2.90;1.80;;;;;;;;;;4974418;28;20261;-56
2023/02/06 00:44:14;;;;;;;2.92;1.77;;;;;;;;;;4987112;28;20697;-59
2023/02/06 00:46:39;;;;;;;2.13;1.70;;;;;;;;;;4954553;28;20030;-61
2023/02/06 00:49:04;;;;;;;2.80;1.90;;;;;;;;;;4954912;28;20026;-62
2023/02/06 00:51:30;;;;;;;2.80;1.90;;;;;;;;;;4986574;28;20073;-60
2023/02/06 00:53:55;;;;;;;2.83;1.70;;;;;;;;;;4989532;28;20018;-60
2023/02/06 00:56:20;;;;;;;2.83;1.90;;;;;;;;;;4987070;28;20088;-60
2023/02/06 00:58:46;;;;;;;3.17;1.67;;;;;;;;;;4987510;28;20025;-61
2023/02/06 01:01:11;;;;;;;2.50;1.80;;;;;;;;;;4969051;28;21029;-58
2023/02/06 01:03:36;;;;;;;3.00;2.20;;;;;;;;;;5005324;28;20026;-57
2023/02/06 01:06:01;;;;;;;2.70;1.70;;;;;;;;;;4982470;28;20034;-61
2023/02/06 01:08:27;;;;;;;2.80;2.00;;;;;;;;;;4980827;28;20292;-60
2023/02/06 01:10:52;;;;;;;2.22;1.67;;;;;;;;;;4986453;28;20070;-60
2023/02/06 01:13:17;;;;;;;2.75;1.60;;;;;;;;;;4987381;28;20018;-61
2023/02/06 01:15:43;;;;;;;2.53;1.70;;;;;;;;;;4971459;28;20445;-61
2023/02/06 01:18:08;;;;;;;2.67;1.67;;;;;;;;;;4987513;28;20140;-67
2023/02/06 01:20:33;;;;;;;2.73;1.67;;;;;;;;;;4979269;28;20045;-56
2023/02/06 01:22:58;;;;;;;2.17;1.52;;;;;;;;;;4987773;28;20356;-61
2023/02/06 01:25:24;;;;;;;2.90;1.90;;;;;;;;;;4987748;28;20026;-61
2023/02/06 01:27:49;;;;;;;2.38;1.60;;;;;;;;;;4971637;28;20489;-61
2023/02/06 01:30:14;;;;;;;2.15;1.58;;;;;;;;;;4971638;28;20017;-58
2023/02/06 01:32:40;;;;;;;2.83;1.73;;;;;;;;;;5003312;28;20493;-61
2023/02/06 01:35:05;;;;;;;2.20;1.40;;;;;;;;;;4965524;28;20050;-58
2023/02/06 01:37:31;;;;;;;2.85;1.90;;;;;;;;;;4968104;28;20026;-61
2023/02/06 01:39:56;;;;;;;2.17;1.52;;;;;;;;;;4968465;28;20490;-63
2023/02/06 01:42:21;;;;;;;2.50;1.60;;;;;;;;;;4967292;28;20030;-59
2023/02/06 01:44:46;;;;;;;2.53;1.53;;;;;;;;;;4985148;28;21333;-60
2023/02/06 01:47:12;;;;;;;2.60;1.67;;;;;;;;;;4984867;28;20365;-61
2023/02/06 01:49:38;;;;;;;2.55;1.77;;;;;;;;;;4951486;28;20304;-58
2023/02/06 01:52:08;;;;;;;2.90;1.88;;;;;;;;;;4985012;28;20038;-59
2023/02/06 01:54:33;;;;;;;2.60;2.08;;;;;;;;;;4967773;28;20080;-59
2023/02/06 01:57:00;;;;;;;2.80;1.80;;;;;;;;;;4984442;28;20459;-59
2023/02/06 01:59:25;;;;;;;2.55;1.65;;;;;;;;;;4984090;28;20312;-61
2023/02/06 02:01:51;;;;;;;2.27;1.53;;;;;;;;;;4948104;28;20054;-62
2023/02/06 02:04:17;;;;;;;2.38;1.63;;;;;;;;;;4967963;28;20276;-62
2023/02/06 02:06:42;;;;;;;2.35;1.70;;;;;;;;;;4966777;28;20049;-57
2023/02/06 02:09:07;;;;;;;2.27;1.77;;;;;;;;;;4967653;28;20031;-60
2023/02/06 02:11:33;;;;;;;2.07;1.40;;;;;;;;;;4984552;28;20278;-61
2023/02/06 02:13:59;;;;;;;2.55;1.60;;;;;;;;;;4967333;28;20389;-59
2023/02/06 02:16:34;;;;;;;2.10;1.35;;;;;;;;;;4956187;28;20119;-59
2023/02/06 02:19:17;;;;;;;2.78;1.73;;;;;;;;;;4967249;28;20068;-63
2023/02/06 02:21:52;;;;;;;1.83;1.40;;;;;;;;;;4966278;28;20045;-59
2023/02/06 02:24:37;;;;;;;2.40;1.52;;;;;;;;;;4967204;28;20514;-61
2023/02/06 02:27:21;;;;;;;2.13;1.42;;;;;;;;;;4946497;28;20058;-60
2023/02/06 02:29:47;;;;;;;2.13;1.50;;;;;;;;;;4983135;28;20034;-61
2023/02/06 02:32:18;;;;;;;2.03;1.25;;;;;;;;;;4983069;28;20046;-61
2023/02/06 02:34:56;;;;;;;2.88;1.80;;;;;;;;;;4970374;28;20057;-59
2023/02/06 02:37:24;;;;;;;2.75;1.60;;;;;;;;;;5002320;28;20041;-57
2023/02/06 02:39:59;;;;;;;2.30;1.52;;;;;;;;;;5003328;28;20433;-58
2023/02/06 02:42:30;;;;;;;2.53;1.80;;;;;;;;;;5003606;28;20154;-58
2023/02/06 02:44:56;;;;;;;2.47;1.65;;;;;;;;;;5018864;28;20076;-61
2023/02/06 02:47:22;;;;;;;2.20;1.30;;;;;;;;;;4985594;28;20037;-62
2023/02/06 02:49:47;;;;;;;2.38;1.50;;;;;;;;;;4990066;28;20276;-61
2023/02/06 02:52:13;;;;;;;2.13;1.47;;;;;;;;;;4986300;28;20018;-60
2023/02/06 02:54:39;;;;;;;2.47;1.60;;;;;;;;;;5018944;28;20355;-59
2023/02/06 02:57:08;;;;;;;2.65;1.70;;;;;;;;;;4969928;28;20028;-60
2023/02/06 02:59:38;;;;;;;1.98;1.35;;;;;;;;;;4986058;28;20094;-60
2023/02/06 03:02:10;;;;;;;2.42;1.50;;;;;;;;;;4982520;28;20122;-61
2023/02/06 03:04:36;;;;;;;2.53;1.60;;;;;;;;;;5010938;28;20483;-60
2023/02/06 03:07:11;;;;;;;2.28;1.58;;;;;;;;;;4985651;28;20169;-60
2023/02/06 03:09:40;;;;;;;2.85;1.60;;;;;;;;;;4985932;28;20060;-61
2023/02/06 03:12:16;;;;;;;2.22;1.40;;;;;;;;;;5002792;28;20103;-58
2023/02/06 03:14:48;;;;;;;2.47;1.60;;;;;;;;;;4986246;28;20030;-58
2023/02/06 03:17:14;;;;;;;2.22;1.40;;;;;;;;;;4984659;28;20104;-62
2023/02/06 03:19:42;;;;;;;2.35;1.50;;;;;;;;;;4984257;28;20044;-58
2023/02/06 03:22:07;;;;;;;2.20;1.50;;;;;;;;;;4993162;28;20065;-55
2023/02/06 03:24:33;;;;;;;2.27;1.50;;;;;;;;;;4976623;28;20546;-60
2023/02/06 03:26:59;;;;;;;2.38;1.30;;;;;;;;;;4968918;28;20332;-59
2023/02/06 03:29:24;;;;;;;1.98;1.40;;;;;;;;;;4949710;28;20042;-59
2023/02/06 03:31:57;;;;;;;2.42;1.40;;;;;;;;;;4973161;28;20456;-59
2023/02/06 03:34:42;;;;;;;2.03;1.58;;;;;;;;;;5001408;28;20034;-59
2023/02/06 03:37:07;;;;;;;2.33;1.50;;;;;;;;;;4989481;28;20104;-61
2023/02/06 03:39:33;;;;;;;1.75;1.35;;;;;;;;;;4985338;28;21104;-61
2023/02/06 03:41:58;;;;;;;2.97;1.80;;;;;;;;;;4970043;28;20034;-57
2023/02/06 03:44:25;;;;;;;1.95;1.20;;;;;;;;;;4985553;28;20065;-57
2023/02/06 03:46:51;;;;;;;3.03;1.90;;;;;;;;;;4990303;28;20038;-58
2023/02/06 03:49:16;;;;;;;2.67;1.50;;;;;;;;;;4967966;28;20160;-61
2023/02/06 03:51:46;;;;;;;2.47;1.50;;;;;;;;;;4953335;28;20053;-58
2023/02/06 03:54:12;;;;;;;2.10;1.52;;;;;;;;;;5004915;28;20100;-60
2023/02/06 03:56:46;;;;;;;2.58;1.58;;;;;;;;;;4974366;28;22066;-57
2023/02/06 03:59:11;;;;;;;2.20;1.40;;;;;;;;;;4952785;28;20037;-60
2023/02/06 04:01:40;;;;;;;3.72;1.65;;;;;;;;;;4994378;28;21513;-60
2023/02/06 04:04:06;;;;;;;3.17;1.52;;;;;;;;;;4984026;28;20137;-59
2023/02/06 04:06:31;;;;;;;2.73;1.30;;;;;;;;;;4966789;28;20141;-61
2023/02/06 04:08:56;;;;;;;2.58;1.50;;;;;;;;;;4969667;28;20356;-63
2023/02/06 04:11:21;;;;;;;1.90;1.40;;;;;;;;;;4997032;28;20046;-61
2023/02/06 04:13:47;;;;;;;3.80;1.57;;;;;;;;;;4985029;28;20022;-61
2023/02/06 04:16:12;;;;;;;2.45;1.70;;;;;;;;;;4967920;28;20829;-62
2023/02/06 04:18:37;;;;;;;2.20;1.40;;;;;;;;;;4983873;28;20088;-62
2023/02/06 04:21:03;;;;;;;2.33;1.50;;;;;;;;;;4969367;28;20384;-60
2023/02/06 04:23:29;;;;;;;2.58;1.50;;;;;;;;;;4953005;28;20663;-61
2023/02/06 04:25:54;;;;;;;2.13;1.30;;;;;;;;;;5001598;28;20030;-60
2023/02/06 04:28:19;;;;;;;2.13;1.23;;;;;;;;;;4971497;28;20926;-61
2023/02/06 04:30:44;;;;;;;2.77;1.47;;;;;;;;;;4988033;28;20038;-58
2023/02/06 04:33:09;;;;;;;2.40;1.40;;;;;;;;;;4969984;28;20299;-64
2023/02/06 04:35:35;;;;;;;1.80;1.30;;;;;;;;;;4997362;28;20858;-60
2023/02/06 04:38:00;;;;;;;1.80;1.48;;;;;;;;;;5003103;28;20398;-59
2023/02/06 04:40:25;;;;;;;2.60;1.40;;;;;;;;;;4982445;28;20549;-59
2023/02/06 04:42:51;;;;;;;1.90;1.30;;;;;;;;;;4985084;28;20042;-60
2023/02/06 04:45:16;;;;;;;2.10;1.40;;;;;;;;;;4975147;28;20047;-60
2023/02/06 04:47:41;;;;;;;1.98;1.48;;;;;;;;;;4970881;28;20058;-57
2023/02/06 04:50:07;;;;;;;1.95;1.50;;;;;;;;;;4992670;28;20528;-59
2023/02/06 04:52:32;;;;;;;1.60;1.27;;;;;;;;;;4950889;28;20039;-63
2023/02/06 04:54:57;;;;;;;1.88;1.33;;;;;;;;;;4978716;28;20809;-62
2023/02/06 04:57:23;;;;;;;1.90;1.43;;;;;;;;;;4978374;28;20050;-56
2023/02/06 04:59:48;;;;;;;2.10;1.40;;;;;;;;;;4972840;28;20450;-63
2023/02/06 05:02:13;;;;;;;1.65;1.20;;;;;;;;;;4996149;28;20751;-59
2023/02/06 05:04:38;;;;;;;1.53;1.23;;;;;;;;;;4968173;28;20129;-62
2023/02/06 05:07:04;;;;;;;2.00;1.23;;;;;;;;;;4969794;28;20836;-60
2023/02/06 05:09:29;;;;;;;1.90;1.27;;;;;;;;;;4964362;28;21094;-61
2023/02/06 05:11:54;;;;;;;2.00;1.30;;;;;;;;;;4968403;28;20077;-62
2023/02/06 05:14:20;;;;;;;1.83;1.20;;;;;;;;;;4984419;28;20289;-62
2023/02/06 05:16:45;;;;;;;2.55;1.23;;;;;;;;;;4969307;28;20065;-61
2023/02/06 05:19:10;;;;;;;1.70;1.30;;;;;;;;;;4946882;28;20039;-58
2023/02/06 05:21:35;;;;;;;2.42;1.15;;;;;;;;;;4976452;28;20361;-60
2023/02/06 05:24:01;;;;;;;2.10;1.17;;;;;;;;;;4968505;28;20051;-58
2023/02/06 05:26:26;;;;;;;2.67;1.38;;;;;;;;;;4985250;28;20162;-60
2023/02/06 05:28:51;;;;;;;1.77;1.10;;;;;;;;;;4988247;28;20506;-63
2023/02/06 05:31:18;;;;;;;2.20;1.33;;;;;;;;;;4971133;28;20706;-61
2023/02/06 05:33:44;;;;;;;2.40;1.35;;;;;;;;;;4985370;28;20044;-59
2023/02/06 05:36:09;;;;;;;2.97;1.83;;;;;;;;;;5015892;28;20542;-61
2023/02/06 05:38:34;;;;;;;2.10;1.10;;;;;;;;;;4988041;28;20534;-59
2023/02/06 05:41:00;;;;;;;1.80;1.20;;;;;;;;;;4994629;28;20487;-61
2023/02/06 05:43:25;;;;;;;2.28;1.05;;;;;;;;;;5003320;28;20284;-59
2023/02/06 05:45:50;;;;;;;1.90;1.20;;;;;;;;;;5005237;28;20029;-60
2023/02/06 05:48:15;;;;;;;2.27;1.37;;;;;;;;;;5004895;28;20391;-60
2023/02/06 05:50:41;;;;;;;2.33;1.38;;;;;;;;;;5004486;28;20293;-62
2023/02/06 05:53:07;;;;;;;2.72;1.40;;;;;;;;;;5004086;28;20034;-61
2023/02/06 05:55:32;;;;;;;2.25;1.27;;;;;;;;;;4999489;28;20657;-62
2023/02/06 05:57:57;;;;;;;2.53;1.33;;;;;;;;;;4985137;28;20042;-63
2023/02/06 06:00:22;;;;;;;2.35;1.42;;;;;;;;;;5004301;28;21059;-57
2023/02/06 06:02:48;;;;;;;1.58;1.13;;;;;;;;;;4998757;28;20038;-61
2023/02/06 06:05:13;;;;;;;2.07;1.20;;;;;;;;;;4971698;28;20839;-60
2023/02/06 06:07:38;;;;;;;3.03;1.20;;;;;;;;;;5006101;28;20367;-60
2023/02/06 06:10:03;;;;;;;1.67;1.20;;;;;;;;;;4968824;28;20288;-64
2023/02/06 06:12:29;;;;;;;11.38;2.38;;;;;;;;;;5008643;28;20327;-62
2023/02/06 06:14:54;;;;;;;9.07;1.98;;;;;;;;;;4987233;28;20049;-60
2023/02/06 06:17:19;;;;;;;10.77;2.00;;;;;;;;;;4987156;28;20128;-56
2023/02/06 06:19:44;;;;;;;6.88;2.05;;;;;;;;;;5004421;28;20040;-59
2023/02/06 06:22:10;;;;;;;8.13;1.60;;;;;;;;;;4968351;28;20093;-62
2023/02/06 06:24:35;;;;;;;7.88;2.10;;;;;;;;;;4987407;28;20350;-61
2023/02/06 06:27:02;;;;;;;7.88;1.88;;;;;;;;;;4980042;28;20506;-59
2023/02/06 06:29:27;;;;;;;11.15;2.33;;;;;;;;;;5000613;28;20074;-59
2023/02/06 06:31:52;;;;;;;7.60;2.03;;;;;;;;;;5005880;28;20060;-59
2023/02/06 06:34:18;;;;;;;7.77;1.90;;;;;;;;;;5002933;28;20312;-58
2023/02/06 06:36:43;;;;;;;6.88;2.50;;;;;;;;;;5000488;28;20300;-62
2023/02/06 06:39:09;;;;;;;6.18;2.20;;;;;;;;;;5018982;28;20144;-61
2023/02/06 06:41:34;;;;;;;12.10;2.65;;;;;;;;;;5001534;28;20025;-59
2023/02/06 06:44:00;;;;;;;7.97;2.30;;;;;;;;;;5001112;28;20030;-59
2023/02/06 06:46:25;;;;;;;9.52;2.00;;;;;;;;;;5002181;28;20049;-60
2023/02/06 06:48:51;;;;;;;6.38;1.83;;;;;;;;;;4984475;28;20037;-60
2023/02/06 06:51:16;;;;;;;8.10;2.25;;;;;;;;;;5004266;28;20123;-63
2023/02/06 06:53:41;;;;;;;9.10;2.35;;;;;;;;;;5003177;28;20522;-63
2023/02/06 06:56:07;;;;;;;9.35;2.05;;;;;;;;;;4985221;28;20049;-58
2023/02/06 06:58:32;;;;;;;10.77;2.45;;;;;;;;;;4984693;28;20037;-59
2023/02/06 07:00:57;;;;;;;7.10;2.30;;;;;;;;;;4985403;28;20041;-59
2023/02/06 07:03:22;;;;;;;7.35;2.15;;;;;;;;;;4971053;28;21051;-56
2023/02/06 07:05:48;;;;;;;4.43;2.10;;;;;;;;;;4985182;28;20521;-64
2023/02/06 07:08:13;;;;;;;5.07;1.90;;;;;;;;;;4985887;28;20305;-60
2023/02/06 07:10:38;;;;;;;7.30;2.00;;;;;;;;;;5001741;28;20092;-62
2023/02/06 07:13:03;;;;;;;5.33;2.30;;;;;;;;;;5002322;28;20280;-58
2023/02/06 07:15:29;;;;;;;7.53;2.37;;;;;;;;;;5003103;28;20352;-61
2023/02/06 07:17:54;;;;;;;3.90;1.77;;;;;;;;;;4984513;28;20295;-59
2023/02/06 07:20:19;;;;;;;5.80;2.03;;;;;;;;;;4984928;28;20137;-59
2023/02/06 07:22:46;;;;;;;5.47;2.10;;;;;;;;;;4965712;28;20297;-60
2023/02/06 07:25:11;;;;;;;5.75;2.17;;;;;;;;;;5005282;28;20292;-61
2023/02/06 07:27:36;;;;;;;6.13;2.40;;;;;;;;;;5006879;28;20776;-60
2023/02/06 07:30:02;;;;;;;6.97;2.67;;;;;;;;;;5006588;28;20681;-60
2023/02/06 07:32:27;;;;;;;7.55;2.30;;;;;;;;;;4987975;28;20289;-61
2023/02/06 07:34:52;;;;;;;6.60;2.27;;;;;;;;;;5007081;28;20050;-63
2023/02/06 07:37:17;;;;;;;7.73;2.33;;;;;;;;;;4988182;28;20289;-57
2023/02/06 07:39:43;;;;;;;6.30;2.28;;;;;;;;;;4985349;28;20292;-57
2023/02/06 07:42:08;;;;;;;6.03;2.03;;;;;;;;;;4971350;28;20026;-60
2023/02/06 07:44:37;;;;;;;7.85;2.17;;;;;;;;;;4987671;28;20657;-61
2023/02/06 07:47:02;;;;;;;5.70;2.20;;;;;;;;;;4983046;23;20173;-60
2023/02/06 07:49:27;;;;;;;6.07;2.30;;;;;;;;;;4967272;28;20117;-64
2023/02/06 07:51:52;;;;;;;5.43;2.17;;;;;;;;;;4970520;28;20472;-63
2023/02/06 07:54:18;;;;;;;5.10;2.50;;;;;;;;;;4954482;28;20126;-65
2023/02/06 07:56:43;;;;;;;8.70;2.70;;;;;;;;;;4971997;28;20053;-65
2023/02/06 07:59:08;;;;;;;4.77;2.10;;;;;;;;;;4954155;28;20037;-63
2023/02/06 08:01:33;;;;;;;4.95;2.42;;;;;;;;;;4987683;28;20265;-58
2023/02/06 08:03:59;;;;;;;5.90;2.50;;;;;;;;;;4965789;28;20550;-64
2023/02/06 08:06:24;;;;;;;4.40;2.08;;;;;;;;;;4956093;28;20746;-66
2023/02/06 08:08:49;;;;;;;5.43;2.40;;;;;;;;;;4972464;28;20519;-60
2023/02/06 08:11:17;;;;;;;5.07;2.25;;;;;;;;;;4954694;28;20057;-66
2023/02/06 08:13:42;;;;;;;6.40;2.45;;;;;;;;;;4989525;28;20018;-70
2023/02/06 08:16:12;;;;;;;6.13;2.63;;;;;;;;;;4970362;28;20040;-65
2023/02/06 08:18:37;;;;;;;5.88;2.40;;;;;;;;;;4988905;28;20101;-67
2023/02/06 08:21:03;;;;;;;5.97;2.40;;;;;;;;;;4969879;28;20578;-61
2023/02/06 08:23:28;;;;;;;5.03;2.40;;;;;;;;;;4972041;28;20023;-58
2023/02/06 08:26:00;;;;;;;3.92;2.05;;;;;;;;;;5000986;28;20805;-63
2023/02/06 08:28:25;;;;;;;4.90;2.03;;;;;;;;;;4966013;28;20053;-68
2023/02/06 08:30:50;;;;;;;5.63;2.40;;;;;;;;;;4979835;28;20030;-65
2023/02/06 08:33:15;;;;;;;4.40;2.55;;;;;;;;;;4969528;28;20313;-66
2023/02/06 08:35:41;;;;;;;5.28;2.33;;;;;;;;;;4954139;28;20035;-69
2023/02/06 08:38:06;;;;;;;5.17;2.47;;;;;;;;;;4955097;28;20038;-66
2023/02/06 08:40:31;;;;;;;4.20;2.33;;;;;;;;;;4955781;28;20634;-67
2023/02/06 08:42:56;;;;;;;6.75;2.22;;;;;;;;;;4955871;28;20077;-59
2023/02/06 08:45:22;;;;;;;5.65;2.60;;;;;;;;;;4955288;28;20104;-64
2023/02/06 08:47:47;;;;;;;5.50;2.60;;;;;;;;;;4987357;28;20046;-68
2023/02/06 08:50:12;;;;;;;4.72;2.10;;;;;;;;;;4989342;28;20270;-69
2023/02/06 08:52:39;;;;;;;5.47;2.47;;;;;;;;;;4989336;28;20169;-62
2023/02/06 08:55:04;;;;;;;6.05;2.40;;;;;;;;;;4956103;28;20368;-63
2023/02/06 08:57:29;;;;;;;4.80;2.40;;;;;;;;;;4970960;28;20090;-64
2023/02/06 08:59:55;;;;;;;4.53;2.30;;;;;;;;;;4955070;28;20050;-61
2023/02/06 09:02:20;;;;;;;5.93;2.50;;;;;;;;;;4953067;28;20282;-63
2023/02/06 09:04:46;;;;;;;3.45;2.00;;;;;;;;;;4955615;28;20113;-64
2023/02/06 09:07:11;;;;;;;4.93;2.78;;;;;;;;;;4955227;28;20054;-67
2023/02/06 09:09:36;;;;;;;5.27;2.73;;;;;;;;;;4954621;28;20062;-67
2023/02/06 09:12:02;;;;;;;4.40;2.20;;;;;;;;;;4951232;28;20774;-64
2023/02/06 09:14:28;;;;;;;4.70;2.38;;;;;;;;;;4982795;28;20158;-65
2023/02/06 09:16:53;;;;;;;4.53;2.40;;;;;;;;;;4972035;28;20109;-69
2023/02/06 09:19:18;;;;;;;4.35;2.42;;;;;;;;;;4971090;28;20042;-65
2023/02/06 09:21:44;;;;;;;4.07;2.07;;;;;;;;;;4954078;28;20252;-61
2023/02/06 09:24:09;;;;;;;3.90;2.20;;;;;;;;;;4954784;28;20320;-67
2023/02/06 09:26:35;;;;;;;4.13;2.13;;;;;;;;;;4971617;28;20277;-65
2023/02/06 09:29:04;;;;;;;3.58;2.60;;;;;;;;;;4951642;28;20530;-66
2023/02/06 09:31:29;;;;;;;4.50;2.38;;;;;;;;;;4955330;28;20054;-62
2023/02/06 09:33:55;;;;;;;4.63;2.70;;;;;;;;;;4956083;28;20072;-66
2023/02/06 09:36:20;;;;;;;4.43;2.45;;;;;;;;;;4954032;28;20034;-62
2023/02/06 09:38:49;;;;;;;4.32;2.25;;;;;;;;;;4970261;28;20053;-65
2023/02/06 09:41:17;;;;;;;3.63;2.13;;;;;;;;;;4965429;28;20039;-68
2023/02/06 09:44:00;;;;;;;3.17;2.10;;;;;;;;;;4972401;28;20023;-70
2023/02/06 09:46:27;;;;;;;4.60;2.80;;;;;;;;;;4971057;28;20673;-63
2023/02/06 09:48:53;;;;;;;4.18;2.53;;;;;;;;;;4966174;28;20053;-62
2023/02/06 09:51:25;;;;;;;5.38;2.60;;;;;;;;;;4974844;28;20584;-64
2023/02/06 09:53:59;;;;;;;4.43;2.47;;;;;;;;;;4982948;28;20023;-64
2023/02/06 09:56:24;;;;;;;3.33;2.45;;;;;;;;;;4984552;28;20088;-61
2023/02/06 09:58:58;;;;;;;4.43;2.40;;;;;;;;;;4968461;28;20478;-65
2023/02/06 10:01:41;;;;;;;3.40;2.15;;;;;;;;;;4969535;28;20305;-64
2023/02/06 10:04:12;;;;;;;4.57;2.90;;;;;;;;;;4969259;28;20089;-63
2023/02/06 10:06:40;;;;;;;4.10;2.60;;;;;;;;;;4972864;28;20026;-67
2023/02/06 10:09:20;;;;;;;3.13;2.00;;;;;;;;;;4991768;28;20567;-62
2023/02/06 10:11:46;;;;;;;4.83;2.40;;;;;;;;;;4988573;28;20038;-60
2023/02/06 10:14:21;;;;;;;3.03;2.03;;;;;;;;;;4991836;28;20046;-64
2023/02/06 10:16:46;;;;;;;3.80;2.40;;;;;;;;;;4967979;28;20077;-65
2023/02/06 10:19:17;;;;;;;4.17;2.60;;;;;;;;;;4979723;28;20039;-68
2023/02/06 10:21:47;;;;;;;3.88;2.47;;;;;;;;;;4984806;28;20376;-62
2023/02/06 10:24:28;;;;;;;5.25;2.58;;;;;;;;;;4969098;28;20014;-65
2023/02/06 10:26:54;;;;;;;4.40;2.50;;;;;;;;;;4967436;28;20066;-64
2023/02/06 10:29:22;;;;;;;4.10;2.30;;;;;;;;;;4973908;28;20065;-64
2023/02/06 10:32:06;;;;;;;3.60;2.40;;;;;;;;;;4969108;28;20042;-66
2023/02/06 10:34:38;;;;;;;4.68;2.25;;;;;;;;;;4968910;28;20108;-67
2023/02/06 10:37:03;;;;;;;4.05;2.33;;;;;;;;;;4986070;28;20018;-69
2023/02/06 10:39:47;;;;;;;4.27;2.83;;;;;;;;;;4982019;28;20038;-66
2023/02/06 10:42:19;;;;;;;4.43;2.38;;;;;;;;;;4964464;28;20312;-58
2023/02/06 10:45:03;;;;;;;4.00;2.22;;;;;;;;;;4950632;28;20273;-66
2023/02/06 10:47:33;;;;;;;3.10;2.20;;;;;;;;;;4982936;28;20054;-64
2023/02/06 10:50:00;;;;;;;;;;;;;;;;;;4969118;28;20122;-59
2023/02/06 10:52:32;;;;;;;3.60;2.00;;;;;;;;;;4961301;28;20444;-66
2023/02/06 10:54:58;;;;;;;4.05;2.30;;;;;;;;;;4968110;28;20027;-66
2023/02/06 10:57:24;;;;;;;4.55;2.45;;;;;;;;;;4965648;28;20032;-70
2023/02/06 10:59:50;;;;;;;3.80;2.33;;;;;;;;;;4967057;28;20038;-67
2023/02/06 11:02:23;;;;;;;3.55;2.60;;;;;;;;;;4967241;28;20030;-64
2023/02/06 11:04:51;;;;;;;3.97;2.30;;;;;;;;;;4951678;28;20030;-69
2023/02/06 11:07:19;;;;;;;2.55;2.00;;;;;;;;;;4985568;28;20130;-73
2023/02/06 11:09:44;;;;;;;3.53;2.40;;;;;;;;;;4984292;28;20031;-67
2023/02/06 11:12:27;;;;;;;2.90;2.30;;;;;;;;;;4965610;28;20088;-64
2023/02/06 11:14:53;;;;;;;3.83;2.30;;;;;;;;;;4974462;28;20507;-60
2023/02/06 11:17:19;;;;;;;3.38;2.17;;;;;;;;;;4984280;28;20018;-67
2023/02/06 11:19:44;;;;;;;3.17;2.35;;;;;;;;;;4965468;28;20026;-62
2023/02/06 11:22:10;;;;;;;3.03;2.10;;;;;;;;;;4965085;28;20084;-64
2023/02/06 11:24:36;;;;;;;3.08;2.33;;;;;;;;;;4966468;28;20019;-61
2023/02/06 11:27:02;;;;;;;2.67;2.13;;;;;;;;;;4981629;28;20042;-69
2023/02/06 11:29:28;;;;;;;3.38;2.60;;;;;;;;;;4966316;28;20110;-66
2023/02/06 11:31:57;;;;;;;3.40;2.40;;;;;;;;;;4965461;28;20794;-66
2023/02/06 11:34:29;;;;;;;3.55;2.10;;;;;;;;;;4950358;28;20030;-66
2023/02/06 11:36:56;;;;;;;3.55;2.28;;;;;;;;;;4985396;28;20042;-63
2023/02/06 11:39:23;;;;;;;3.22;2.17;;;;;;;;;;4966511;28;20035;-60
2023/02/06 11:41:55;;;;;;;3.10;2.10;;;;;;;;;;4982537;28;20026;-65
2023/02/06 11:44:23;;;;;;;3.05;2.22;;;;;;;;;;4985370;28;20042;-64
2023/02/06 11:46:48;;;;;;;3.53;2.55;;;;;;;;;;4978506;28;20101;-64
2023/02/06 11:49:23;;;;;;;3.30;2.10;;;;;;;;;;4952174;28;20042;-65
2023/02/06 11:51:55;;;;;;;2.58;1.80;;;;;;;;;;4966184;28;20811;-70
2023/02/06 11:54:26;;;;;;;3.40;2.15;;;;;;;;;;4963924;28;20035;-63
2023/02/06 11:57:03;;;;;;;3.53;1.95;;;;;;;;;;4951928;28;20041;-64
2023/02/06 11:59:33;;;;;;;3.03;1.90;;;;;;;;;;4985146;28;20073;-59
2023/02/06 12:02:00;;;;;;;3.40;2.30;;;;;;;;;;4980266;28;20101;-60
2023/02/06 12:04:38;;;;;;;3.25;2.30;;;;;;;;;;4963554;28;20047;-61
2023/02/06 12:07:03;;;;;;;2.67;2.00;;;;;;;;;;4965783;28;20033;-67
2023/02/06 12:09:28;;;;;;;3.33;2.23;;;;;;;;;;4986143;28;20474;-69
2023/02/06 12:12:00;;;;;;;3.90;2.00;;;;;;;;;;4954494;28;20415;-66
2023/02/06 12:14:25;;;;;;;2.92;2.13;;;;;;;;;;4985726;28;20313;-61
2023/02/06 12:16:50;;;;;;;2.57;1.87;;;;;;;;;;4986715;28;20392;-66
2023/02/06 12:19:17;;;;;;;2.80;2.05;;;;;;;;;;4971949;28;20483;-66
2023/02/06 12:21:47;;;;;;;2.58;1.88;;;;;;;;;;4973239;28;20504;-64
2023/02/06 12:24:12;;;;;;;2.63;2.03;;;;;;;;;;4988751;28;20768;-66
2023/02/06 12:26:37;;;;;;;2.30;1.80;;;;;;;;;;4987664;28;20034;-69
2023/02/06 12:29:08;;;;;;;2.72;1.90;;;;;;;;;;4970981;28;20367;-67
2023/02/06 12:31:52;;;;;;;2.80;2.33;;;;;;;;;;4972589;28;20038;-61
2023/02/06 12:34:19;;;;;;;3.08;2.00;;;;;;;;;;4984967;28;20077;-67
2023/02/06 12:36:57;;;;;;;3.60;2.40;;;;;;;;;;4988832;28;20034;-67
2023/02/06 12:39:22;;;;;;;2.88;2.03;;;;;;;;;;4986090;28;20211;-64
2023/02/06 12:41:51;;;;;;;2.40;1.77;;;;;;;;;;4971190;28;20368;-63
2023/02/06 12:44:26;;;;;;;4.80;1.90;;;;;;;;;;4969058;28;20039;-66
2023/02/06 12:47:04;;;;;;;2.60;1.90;;;;;;;;;;4987994;28;20403;-66
2023/02/06 12:49:31;;;;;;;3.70;2.05;;;;;;;;;;4974118;28;20481;-61
2023/02/06 12:52:10;;;;;;;2.80;2.10;;;;;;;;;;4975032;28;20030;-70
2023/02/06 12:54:57;;;;;;;2.40;1.92;;;;;;;;;;4976241;28;20037;-63
2023/02/06 12:57:23;;;;;;;3.50;2.03;;;;;;;;;;4955866;28;20050;-68
2023/02/06 13:00:06;;;;;;;2.65;1.90;;;;;;;;;;4971017;28;20022;-60
2023/02/06 13:02:31;;;;;;;2.45;1.90;;;;;;;;;;4989115;28;20423;-66
2023/02/06 13:04:56;;;;;;;2.60;1.77;;;;;;;;;;4965552;28;20038;-66
2023/02/06 13:07:22;;;;;;;2.40;1.83;;;;;;;;;;4955679;28;20815;-64
2023/02/06 13:09:50;;;;;;;3.20;2.10;;;;;;;;;;4952920;28;20035;-65
2023/02/06 13:12:20;;;;;;;2.63;2.00;;;;;;;;;;4987510;28;20216;-70
2023/02/06 13:14:46;;;;;;;2.23;1.50;;;;;;;;;;4961193;28;20050;-63
2023/02/06 13:17:16;;;;;;;2.40;1.80;;;;;;;;;;4970418;28;20031;-65
2023/02/06 13:19:41;;;;;;;2.67;1.77;;;;;;;;;;4969456;28;20069;-62
2023/02/06 13:22:09;;;;;;;2.50;1.80;;;;;;;;;;4988840;28;20510;-66
2023/02/06 13:24:35;;;;;;;2.72;1.77;;;;;;;;;;4979071;28;20288;-65
2023/02/06 13:27:07;;;;;;;3.35;1.88;;;;;;;;;;4975866;28;20042;-64
2023/02/06 13:29:32;;;;;;;2.50;1.80;;;;;;;;;;5000365;28;20042;-60
2023/02/06 13:32:10;;;;;;;2.70;1.90;;;;;;;;;;4988042;28;20030;-64
2023/02/06 13:34:42;;;;;;;2.70;1.80;;;;;;;;;;4999992;28;20070;-59
2023/02/06 13:37:25;;;;;;;2.53;1.85;;;;;;;;;;4983991;28;20022;-65
2023/02/06 13:40:10;;;;;;;2.42;1.75;;;;;;;;;;4969769;28;20101;-65
2023/02/06 13:42:54;;;;;;;3.13;1.98;;;;;;;;;;4982486;28;20106;-63
2023/02/06 13:45:19;;;;;;;2.63;2.00;;;;;;;;;;4997224;28;20039;-64
2023/02/06 13:47:50;;;;;;;3.23;1.70;;;;;;;;;;4996438;28;20500;-64
2023/02/06 13:50:31;;;;;;;2.58;1.70;;;;;;;;;;4977831;28;20026;-66
2023/02/06 13:53:07;;;;;;;2.40;1.70;;;;;;;;;;4954201;28;20434;-66
2023/02/06 13:55:44;;;;;;;2.38;1.80;;;;;;;;;;4954253;28;20034;-62
2023/02/06 13:58:34;;;;;;;2.10;1.58;;;;;;;;;;4970558;28;20084;-68
2023/02/06 14:00:59;;;;;;;2.22;1.63;;;;;;;;;;4963177;28;20033;-70
2023/02/06 14:03:27;;;;;;;2.33;1.80;;;;;;;;;;4956008;28;20046;-66
2023/02/06 14:05:52;;;;;;;2.92;1.70;;;;;;;;;;4958397;28;20042;-67
2023/02/06 14:08:39;;;;;;;2.20;1.70;;;;;;;;;;4974780;28;20097;-68
2023/02/06 14:11:08;;;;;;;2.33;1.63;;;;;;;;;;4956022;28;20057;-67
2023/02/06 14:13:37;;;;;;;2.15;1.58;;;;;;;;;;4988453;28;20054;-61
2023/02/06 14:16:21;;;;;;;2.53;2.00;;;;;;;;;;4986969;28;20073;-67
2023/02/06 14:18:46;;;;;;;2.80;1.90;;;;;;;;;;4979095;28;20042;-61
2023/02/06 14:21:23;;;;;;;2.30;1.90;;;;;;;;;;4985380;28;20021;-67
2023/02/06 14:23:58;;;;;;;2.17;1.55;;;;;;;;;;4987736;28;20281;-69
2023/02/06 14:26:23;;;;;;;2.30;1.73;;;;;;;;;;4974046;28;20100;-67
2023/02/06 14:29:08;;;;;;;2.10;1.53;;;;;;;;;;4987825;28;20427;-65
2023/02/06 14:31:36;;;;;;;2.08;1.60;;;;;;;;;;4987249;28;20385;-57
2023/02/06 14:34:24;;;;;;;2.30;1.77;;;;;;;;;;4984141;28;20069;-64
2023/02/06 14:37:00;;;;;;;2.53;1.70;;;;;;;;;;4957003;28;20046;-59
2023/02/06 14:39:39;;;;;;;2.42;1.90;;;;;;;;;;4952629;28;20092;-63
2023/02/06 14:42:11;;;;;;;2.60;1.55;;;;;;;;;;4950619;28;20447;-63
2023/02/06 14:44:36;;;;;;;2.22;1.63;;;;;;;;;;4986818;28;20122;-62
2023/02/06 14:47:01;;;;;;;2.63;1.70;;;;;;;;;;4965519;28;20149;-64